Terminal Aerodrome Forecast
Issued by NWS

Home | Current Version | Previous Version | Text Only | Print | Product List | Glossary On
Versions: 1 2 3 4 5 6 7 8 9 10 11 12 13 14 15
756
FTUS46 KPDT 041815 AAA
TAFPSC
TAF AMD
KPSC 041815Z 0418/0518 25015G23KT P6SM FEW100 BKN120
     FM041900 26020G28KT P6SM VCSH BKN080 BKN100
     FM042100 27018G26KT P6SM SCT080 BKN100 OVC120
     FM050000 27014G22KT P6SM SCT080 OVC100
     FM050300 27012G18KT P6SM FEW180=

USA.gov is the U.S. government's official web portal to all federal, state and local government web resources and services.